Zoetermeer, Netherlands
Current Conditions -  °F | °C
As of 8:55 AM on Friday 24 Oct 2014 (Local Time) from EHRD Reporting Station
Light Rain Light Rain  
Wind Chill: 54°   Ceiling: 3200
Heat Index: 54°   Visibility: 6mi
Dew Point: 50°   Wind: 14mph
Humidity: 88%   Direction: 170°S
Pressure: 30.06"   Gusts: NA
Location:  52.06°N, 4.49°E
Report Text: EHRD 240655Z AUTO 17012KT 140V200 9999 -RA SCT015CB BKN032OVC044 12/10 Q1018 RERA REDZ TEMPO 4000
Loading
Personal Weather Stations






























Interactive Weather Map
Tropical Storm Tracking
New forecast layout! Learn more

10-Day Weather Forecast

Advertisements
Track Severe Weather on mobile